GLO2056 SBGL-SBFZ
Flight info
| Callsign | GLO2056 |
|---|---|
| Flight time | 2h 51m |
| Altitude | 37000 |
| Route | IMBAP UZ1 DOTKU |
| Aircraft | B738/M-SDFGIKLORWXY/LB1 |
Departure
| Time | 2026-04-29 22:27 |
|---|---|
| Airport | Rio Galeão – Tom Jobim International Airport (SBGL) |
Arrival
| Time | 2026-04-30 01:18 |
|---|---|
| Airport | Pinto Martins International Airport (SBFZ) |
| Time | Latitude | Longitude | Altitude | Speed | Heading |
|---|---|---|---|---|---|
| 2026-04-29 22:03 | -22.81041 | -43.25313 | 21 ft | 0 kts | 93° |
| 2026-04-29 22:15 | -22.81041 | -43.25316 | 21 ft | 3 kts | 92° |
| 2026-04-29 22:15 | -22.81041 | -43.25335 | 21 ft | 4 kts | 81° |
| 2026-04-29 22:15 | -22.81055 | -43.25369 | 21 ft | 4 kts | 40° |
| 2026-04-29 22:16 | -22.81077 | -43.25381 | 21 ft | 4 kts | 4° |
| 2026-04-29 22:16 | -22.81091 | -43.25381 | 21 ft | 1 kts | 352° |
| 2026-04-29 22:19 | -22.81080 | -43.25383 | 22 ft | 3 kts | 351° |
| 2026-04-29 22:19 | -22.81044 | -43.25387 | 22 ft | 7 kts | 0° |
| 2026-04-29 22:20 | -22.80976 | -43.25389 | 22 ft | 11 kts | 331° |
| 2026-04-29 22:20 | -22.80935 | -43.25457 | 25 ft | 11 kts | 295° |
| 2026-04-29 22:20 | -22.80899 | -43.25534 | 27 ft | 13 kts | 297° |
| 2026-04-29 22:20 | -22.80841 | -43.25647 | 26 ft | 19 kts | 307° |
| 2026-04-29 22:21 | -22.80725 | -43.25651 | 24 ft | 19 kts | 31° |
| 2026-04-29 22:21 | -22.80616 | -43.25568 | 27 ft | 19 kts | 35° |
| 2026-04-29 22:21 | -22.80515 | -43.25481 | 29 ft | 18 kts | 42° |
| 2026-04-29 22:21 | -22.80430 | -43.25382 | 27 ft | 18 kts | 54° |
| 2026-04-29 22:22 | -22.80371 | -43.25269 | 27 ft | 17 kts | 65° |
| 2026-04-29 22:22 | -22.80330 | -43.25145 | 28 ft | 19 kts | 73° |
| 2026-04-29 22:22 | -22.80289 | -43.24987 | 27 ft | 24 kts | 73° |
| 2026-04-29 22:22 | -22.80243 | -43.24813 | 27 ft | 23 kts | 74° |
| 2026-04-29 22:23 | -22.80201 | -43.24647 | 26 ft | 22 kts | 75° |
| 2026-04-29 22:23 | -22.80160 | -43.24486 | 27 ft | 22 kts | 74° |
| 2026-04-29 22:23 | -22.80120 | -43.24330 | 28 ft | 21 kts | 75° |
| 2026-04-29 22:23 | -22.80080 | -43.24178 | 29 ft | 21 kts | 74° |
| 2026-04-29 22:24 | -22.80041 | -43.24026 | 29 ft | 23 kts | 75° |
| 2026-04-29 22:24 | -22.79996 | -43.23848 | 25 ft | 26 kts | 75° |
| 2026-04-29 22:24 | -22.79948 | -43.23669 | 27 ft | 24 kts | 73° |
| 2026-04-29 22:24 | -22.79904 | -43.23501 | 27 ft | 23 kts | 77° |
| 2026-04-29 22:25 | -22.79862 | -43.23339 | 29 ft | 22 kts | 77° |
| 2026-04-29 22:25 | -22.79824 | -43.23181 | 31 ft | 21 kts | 75° |
| 2026-04-29 22:25 | -22.79784 | -43.23030 | 33 ft | 19 kts | 65° |
| 2026-04-29 22:25 | -22.79689 | -43.23032 | 33 ft | 16 kts | 297° |
| 2026-04-29 22:26 | -22.79672 | -43.23151 | 32 ft | 16 kts | 274° |
| 2026-04-29 22:26 | -22.79663 | -43.23279 | 30 ft | 19 kts | 272° |
| 2026-04-29 22:26 | -22.79659 | -43.23445 | 27 ft | 24 kts | 265° |
| 2026-04-29 22:26 | -22.79710 | -43.23670 | 28 ft | 56 kts | 254° |
| 2026-04-29 22:27 | -22.79889 | -43.24362 | 31 ft | 132 kts | 254° |
| 2026-04-29 22:27 | -22.80213 | -43.25552 | 107 ft | 190 kts | 252° |
| 2026-04-29 22:27 | -22.80580 | -43.26954 | 1016 ft | 197 kts | 253° |
| 2026-04-29 22:27 | -22.80762 | -43.28476 | 1580 ft | 220 kts | 278° |
| 2026-04-29 22:28 | -22.80069 | -43.30029 | 1995 ft | 238 kts | 302° |
| 2026-04-29 22:28 | -22.79153 | -43.31592 | 2462 ft | 257 kts | 300° |
| 2026-04-29 22:28 | -22.78248 | -43.33289 | 3240 ft | 262 kts | 298° |
| 2026-04-29 22:28 | -22.77400 | -43.35019 | 4207 ft | 260 kts | 297° |
| 2026-04-29 22:29 | -22.76603 | -43.36759 | 4940 ft | 268 kts | 296° |
| 2026-04-29 22:29 | -22.75782 | -43.38649 | 5716 ft | 274 kts | 296° |
| 2026-04-29 22:29 | -22.74983 | -43.40537 | 6523 ft | 276 kts | 295° |
| 2026-04-29 22:29 | -22.74087 | -43.42382 | 6986 ft | 281 kts | 311° |
| 2026-04-29 22:30 | -22.72490 | -43.43565 | 7753 ft | 281 kts | 342° |
| 2026-04-29 22:30 | -22.70552 | -43.43779 | 8521 ft | 285 kts | 8° |
| 2026-04-29 22:30 | -22.68661 | -43.43094 | 9170 ft | 291 kts | 29° |
| 2026-04-29 22:30 | -22.66964 | -43.41872 | 9889 ft | 294 kts | 35° |
| 2026-04-29 22:31 | -22.65309 | -43.40529 | 10461 ft | 305 kts | 37° |
| 2026-04-29 22:31 | -22.63563 | -43.39078 | 10627 ft | 327 kts | 37° |
| 2026-04-29 22:31 | -22.61705 | -43.37533 | 10870 ft | 345 kts | 37° |
| 2026-04-29 22:31 | -22.59775 | -43.35937 | 11408 ft | 352 kts | 36° |
| 2026-04-29 22:32 | -22.57822 | -43.34335 | 12106 ft | 353 kts | 36° |
| 2026-04-29 22:32 | -22.55857 | -43.32733 | 12753 ft | 356 kts | 36° |
| 2026-04-29 22:32 | -22.53864 | -43.31115 | 13336 ft | 360 kts | 35° |
| 2026-04-29 22:32 | -22.51870 | -43.29502 | 13899 ft | 365 kts | 35° |
| 2026-04-29 22:33 | -22.49821 | -43.27848 | 14437 ft | 369 kts | 34° |
| 2026-04-29 22:33 | -22.47749 | -43.26176 | 14997 ft | 373 kts | 34° |
| 2026-04-29 22:33 | -22.45651 | -43.24485 | 15457 ft | 377 kts | 34° |
| 2026-04-29 22:33 | -22.43539 | -43.22784 | 16006 ft | 380 kts | 34° |
| 2026-04-29 22:34 | -22.41400 | -43.21063 | 16535 ft | 384 kts | 34° |
| 2026-04-29 22:34 | -22.39248 | -43.19332 | 17050 ft | 388 kts | 33° |
| 2026-04-29 22:34 | -22.37068 | -43.17580 | 17548 ft | 392 kts | 33° |
| 2026-04-29 22:34 | -22.34870 | -43.15816 | 18037 ft | 395 kts | 33° |
| 2026-04-29 22:35 | -22.32677 | -43.14055 | 18481 ft | 399 kts | 33° |
| 2026-04-29 22:35 | -22.30439 | -43.12257 | 18945 ft | 402 kts | 33° |
| 2026-04-29 22:35 | -22.28188 | -43.10450 | 19450 ft | 404 kts | 33° |
| 2026-04-29 22:35 | -22.25932 | -43.08638 | 19915 ft | 406 kts | 32° |
| 2026-04-29 22:36 | -22.23658 | -43.06813 | 20319 ft | 409 kts | 32° |
| 2026-04-29 22:36 | -22.21363 | -43.04974 | 20703 ft | 412 kts | 33° |
| 2026-04-29 22:36 | -22.19055 | -43.03121 | 21155 ft | 414 kts | 32° |
| 2026-04-29 22:36 | -22.16735 | -43.01261 | 21585 ft | 416 kts | 32° |
| 2026-04-29 22:37 | -22.14402 | -42.99394 | 22001 ft | 418 kts | 32° |
| 2026-04-29 22:37 | -22.12054 | -42.97517 | 22411 ft | 420 kts | 32° |
| 2026-04-29 22:37 | -22.09698 | -42.95633 | 22778 ft | 423 kts | 32° |
| 2026-04-29 22:37 | -22.07329 | -42.93737 | 23136 ft | 426 kts | 32° |
| 2026-04-29 22:38 | -22.04974 | -42.91853 | 23524 ft | 427 kts | 32° |
| 2026-04-29 22:38 | -22.02582 | -42.89940 | 23904 ft | 429 kts | 32° |
| 2026-04-29 22:38 | -22.00176 | -42.88020 | 24241 ft | 432 kts | 32° |
| 2026-04-29 22:38 | -21.97748 | -42.86082 | 24548 ft | 434 kts | 33° |
| 2026-04-29 22:39 | -21.95316 | -42.84141 | 24891 ft | 435 kts | 33° |
| 2026-04-29 22:39 | -21.92876 | -42.82196 | 25204 ft | 438 kts | 33° |
| 2026-04-29 22:39 | -21.90417 | -42.80234 | 25498 ft | 440 kts | 33° |
| 2026-04-29 22:39 | -21.87942 | -42.78262 | 25778 ft | 443 kts | 33° |
| 2026-04-29 22:40 | -21.85457 | -42.76282 | 26041 ft | 446 kts | 33° |
| 2026-04-29 22:40 | -21.82964 | -42.74296 | 26372 ft | 447 kts | 33° |
| 2026-04-29 22:40 | -21.80460 | -42.72301 | 26635 ft | 450 kts | 33° |
| 2026-04-29 22:40 | -21.77967 | -42.70316 | 26895 ft | 452 kts | 33° |
| 2026-04-29 22:41 | -21.75434 | -42.68301 | 27165 ft | 454 kts | 33° |
| 2026-04-29 22:41 | -21.72887 | -42.66277 | 27418 ft | 456 kts | 33° |
| 2026-04-29 22:41 | -21.70332 | -42.64246 | 27671 ft | 458 kts | 33° |
| 2026-04-29 22:41 | -21.67763 | -42.62205 | 27935 ft | 460 kts | 33° |
| 2026-04-29 22:42 | -21.65157 | -42.60215 | 28197 ft | 459 kts | 28° |
| 2026-04-29 22:42 | -21.62330 | -42.58627 | 28376 ft | 458 kts | 19° |
| 2026-04-29 22:42 | -21.59318 | -42.57527 | 28607 ft | 455 kts | 10° |
| 2026-04-29 22:42 | -21.56235 | -42.56757 | 28864 ft | 455 kts | 9° |
| 2026-04-29 22:43 | -21.53130 | -42.56023 | 29076 ft | 458 kts | 9° |
| 2026-04-29 22:43 | -21.50009 | -42.55292 | 29291 ft | 460 kts | 9° |
| 2026-04-29 22:43 | -21.46882 | -42.54552 | 29512 ft | 461 kts | 9° |
| 2026-04-29 22:43 | -21.43737 | -42.53794 | 29721 ft | 463 kts | 9° |
| 2026-04-29 22:44 | -21.40586 | -42.53025 | 29920 ft | 465 kts | 9° |
| 2026-04-29 22:44 | -21.37425 | -42.52246 | 30128 ft | 467 kts | 9° |
| 2026-04-29 22:44 | -21.34251 | -42.51461 | 30321 ft | 468 kts | 9° |
| 2026-04-29 22:44 | -21.31077 | -42.50675 | 30550 ft | 469 kts | 9° |
| 2026-04-29 22:45 | -21.27933 | -42.49896 | 30860 ft | 468 kts | 9° |
| 2026-04-29 22:45 | -21.24766 | -42.49111 | 31191 ft | 467 kts | 9° |
| 2026-04-29 22:45 | -21.21605 | -42.48330 | 31480 ft | 466 kts | 9° |
| 2026-04-29 22:45 | -21.18438 | -42.47548 | 31726 ft | 467 kts | 9° |
| 2026-04-29 22:46 | -21.15275 | -42.46768 | 32008 ft | 466 kts | 9° |
| 2026-04-29 22:46 | -21.12112 | -42.45988 | 32306 ft | 465 kts | 9° |
| 2026-04-29 22:46 | -21.08957 | -42.45210 | 32583 ft | 465 kts | 9° |
| 2026-04-29 22:46 | -21.05799 | -42.44432 | 32846 ft | 465 kts | 10° |
| 2026-04-29 22:47 | -21.02648 | -42.43656 | 33098 ft | 464 kts | 10° |
| 2026-04-29 22:47 | -20.99499 | -42.42881 | 33361 ft | 464 kts | 10° |
| 2026-04-29 22:47 | -20.96353 | -42.42104 | 33625 ft | 464 kts | 10° |
| 2026-04-29 22:47 | -20.93211 | -42.41331 | 33812 ft | 464 kts | 10° |
| 2026-04-29 22:48 | -20.90056 | -42.40556 | 34070 ft | 464 kts | 10° |
| 2026-04-29 22:48 | -20.86915 | -42.39785 | 34357 ft | 462 kts | 10° |
| 2026-04-29 22:48 | -20.83827 | -42.39026 | 34601 ft | 462 kts | 10° |
| 2026-04-29 22:48 | -20.80694 | -42.38257 | 34814 ft | 462 kts | 10° |
| 2026-04-29 22:49 | -20.77560 | -42.37487 | 35038 ft | 462 kts | 10° |
| 2026-04-29 22:49 | -20.74422 | -42.36719 | 35291 ft | 461 kts | 10° |
| 2026-04-29 22:49 | -20.71295 | -42.35952 | 35532 ft | 461 kts | 10° |
| 2026-04-29 22:49 | -20.68176 | -42.35187 | 35725 ft | 461 kts | 10° |
| 2026-04-29 22:50 | -20.65046 | -42.34419 | 35903 ft | 461 kts | 10° |
| 2026-04-29 22:50 | -20.61895 | -42.33647 | 36135 ft | 460 kts | 10° |
| 2026-04-29 22:50 | -20.58776 | -42.32883 | 36351 ft | 460 kts | 10° |
| 2026-04-29 22:50 | -20.55693 | -42.32129 | 36481 ft | 461 kts | 10° |
| 2026-04-29 22:51 | -20.52563 | -42.31369 | 36654 ft | 461 kts | 10° |
| 2026-04-29 22:51 | -20.49447 | -42.30627 | 36995 ft | 456 kts | 10° |
| 2026-04-29 22:51 | -20.43237 | -42.29162 | 37071 ft | 456 kts | 10° |
| 2026-04-29 22:52 | -20.37057 | -42.27702 | 37061 ft | 451 kts | 10° |
| 2026-04-29 22:52 | -20.30948 | -42.26257 | 37064 ft | 448 kts | 10° |
| 2026-04-29 22:53 | -20.24866 | -42.24817 | 37066 ft | 447 kts | 10° |
| 2026-04-29 22:53 | -20.18835 | -42.23390 | 37066 ft | 446 kts | 10° |
| 2026-04-29 22:54 | -20.12771 | -42.21958 | 37069 ft | 447 kts | 10° |
| 2026-04-29 22:54 | -20.06694 | -42.20523 | 37066 ft | 448 kts | 10° |
| 2026-04-29 22:55 | -20.00606 | -42.19022 | 37061 ft | 451 kts | 12° |
| 2026-04-29 22:55 | -19.94503 | -42.17429 | 37059 ft | 453 kts | 12° |
| 2026-04-29 22:56 | -19.88355 | -42.15831 | 37058 ft | 455 kts | 12° |
| 2026-04-29 22:56 | -19.82194 | -42.14244 | 37055 ft | 456 kts | 12° |
| 2026-04-29 22:57 | -19.76054 | -42.12666 | 37058 ft | 457 kts | 12° |
| 2026-04-29 22:57 | -19.69813 | -42.11183 | 37053 ft | 456 kts | 10° |
| 2026-04-29 22:58 | -19.63599 | -42.09793 | 37053 ft | 456 kts | 10° |
| 2026-04-29 22:58 | -19.57433 | -42.08401 | 37054 ft | 455 kts | 10° |
| 2026-04-29 22:59 | -19.51238 | -42.06988 | 37053 ft | 455 kts | 10° |
| 2026-04-29 22:59 | -19.45050 | -42.05575 | 37052 ft | 454 kts | 10° |
| 2026-04-29 23:00 | -19.38884 | -42.04168 | 37044 ft | 453 kts | 10° |
| 2026-04-29 23:00 | -19.32724 | -42.02761 | 37053 ft | 452 kts | 11° |
| 2026-04-29 23:01 | -19.26598 | -42.01272 | 37041 ft | 451 kts | 11° |
| 2026-04-29 23:01 | -19.20487 | -41.99766 | 37045 ft | 450 kts | 11° |
| 2026-04-29 23:02 | -19.15414 | -41.98529 | 37044 ft | 451 kts | 12° |
| 2026-04-29 23:02 | -19.09294 | -41.97042 | 37049 ft | 451 kts | 12° |
| 2026-04-29 23:03 | -19.03170 | -41.95554 | 37047 ft | 451 kts | 12° |
| 2026-04-29 23:03 | -18.97039 | -41.94077 | 37048 ft | 452 kts | 12° |
| 2026-04-29 23:04 | -18.90894 | -41.92608 | 37050 ft | 453 kts | 12° |
| 2026-04-29 23:04 | -18.84731 | -41.91136 | 37050 ft | 455 kts | 12° |
| 2026-04-29 23:05 | -18.78545 | -41.89657 | 37049 ft | 456 kts | 12° |
| 2026-04-29 23:05 | -18.72352 | -41.88178 | 37048 ft | 457 kts | 12° |
| 2026-04-29 23:06 | -18.66177 | -41.86704 | 37047 ft | 457 kts | 12° |
| 2026-04-29 23:06 | -18.59975 | -41.85227 | 37043 ft | 457 kts | 12° |
| 2026-04-29 23:07 | -18.53754 | -41.83755 | 37050 ft | 458 kts | 12° |
| 2026-04-29 23:07 | -18.47537 | -41.82285 | 37047 ft | 458 kts | 12° |
| 2026-04-29 23:08 | -18.41325 | -41.80815 | 37044 ft | 457 kts | 12° |
| 2026-04-29 23:08 | -18.35164 | -41.79359 | 37045 ft | 456 kts | 12° |
| 2026-04-29 23:09 | -18.28967 | -41.77895 | 37046 ft | 456 kts | 12° |
| 2026-04-29 23:09 | -18.22786 | -41.76436 | 37034 ft | 455 kts | 12° |
| 2026-04-29 23:10 | -18.16611 | -41.74981 | 37040 ft | 454 kts | 12° |
| 2026-04-29 23:10 | -18.10444 | -41.73527 | 37038 ft | 454 kts | 12° |
| 2026-04-29 23:11 | -18.04277 | -41.72073 | 37036 ft | 454 kts | 12° |
| 2026-04-29 23:11 | -17.98156 | -41.70634 | 37034 ft | 454 kts | 12° |
| 2026-04-29 23:12 | -17.91993 | -41.69185 | 37041 ft | 453 kts | 12° |
| 2026-04-29 23:12 | -17.85835 | -41.67737 | 37036 ft | 453 kts | 12° |
| 2026-04-29 23:13 | -17.79678 | -41.66290 | 37035 ft | 453 kts | 12° |
| 2026-04-29 23:13 | -17.73519 | -41.64847 | 37040 ft | 453 kts | 12° |
| 2026-04-29 23:14 | -17.67358 | -41.63402 | 37037 ft | 454 kts | 12° |
| 2026-04-29 23:14 | -17.61197 | -41.61959 | 37052 ft | 454 kts | 12° |
| 2026-04-29 23:15 | -17.55028 | -41.60514 | 37055 ft | 454 kts | 12° |
| 2026-04-29 23:15 | -17.48857 | -41.59069 | 37057 ft | 455 kts | 12° |
| 2026-04-29 23:16 | -17.42714 | -41.57632 | 37051 ft | 455 kts | 13° |
| 2026-04-29 23:16 | -17.36527 | -41.56184 | 37059 ft | 455 kts | 13° |
| 2026-04-29 23:17 | -17.30342 | -41.54729 | 37059 ft | 456 kts | 13° |
| 2026-04-29 23:17 | -17.24145 | -41.53274 | 37055 ft | 456 kts | 13° |
| 2026-04-29 23:18 | -17.17952 | -41.51820 | 37053 ft | 456 kts | 13° |
| 2026-04-29 23:18 | -17.11761 | -41.50370 | 37056 ft | 456 kts | 13° |
| 2026-04-29 23:19 | -17.05556 | -41.48925 | 37056 ft | 456 kts | 13° |
| 2026-04-29 23:19 | -16.99407 | -41.47495 | 37056 ft | 456 kts | 13° |
| 2026-04-29 23:20 | -16.93219 | -41.46056 | 37054 ft | 455 kts | 13° |
| 2026-04-29 23:20 | -16.87037 | -41.44618 | 37055 ft | 455 kts | 13° |
| 2026-04-29 23:21 | -16.80857 | -41.43182 | 37056 ft | 455 kts | 13° |
| 2026-04-29 23:21 | -16.74682 | -41.41747 | 37055 ft | 454 kts | 13° |
| 2026-04-29 23:22 | -16.68522 | -41.40319 | 37060 ft | 453 kts | 13° |
| 2026-04-29 23:22 | -16.62363 | -41.38882 | 37062 ft | 453 kts | 13° |
| 2026-04-29 23:23 | -16.56203 | -41.37444 | 37067 ft | 453 kts | 13° |
| 2026-04-29 23:23 | -16.50058 | -41.36011 | 37066 ft | 453 kts | 13° |
| 2026-04-29 23:24 | -16.43904 | -41.34577 | 37066 ft | 454 kts | 13° |
| 2026-04-29 23:24 | -16.37779 | -41.33154 | 37064 ft | 454 kts | 13° |
| 2026-04-29 23:25 | -16.31608 | -41.31718 | 37066 ft | 454 kts | 13° |
| 2026-04-29 23:25 | -16.25442 | -41.30285 | 37069 ft | 454 kts | 13° |
| 2026-04-29 23:26 | -16.19270 | -41.28851 | 37065 ft | 455 kts | 13° |
| 2026-04-29 23:26 | -16.13089 | -41.27414 | 37067 ft | 455 kts | 13° |
| 2026-04-29 23:27 | -16.06910 | -41.25981 | 37061 ft | 455 kts | 13° |
| 2026-04-29 23:27 | -16.00733 | -41.24548 | 37055 ft | 455 kts | 13° |
| 2026-04-29 23:28 | -15.94548 | -41.23114 | 37056 ft | 455 kts | 13° |
| 2026-04-29 23:28 | -15.88371 | -41.21684 | 37053 ft | 455 kts | 13° |
| 2026-04-29 23:29 | -15.82189 | -41.20251 | 37054 ft | 454 kts | 13° |
| 2026-04-29 23:29 | -15.76018 | -41.18822 | 37055 ft | 454 kts | 13° |
| 2026-04-29 23:30 | -15.69899 | -41.17407 | 37055 ft | 453 kts | 13° |
| 2026-04-29 23:30 | -15.63743 | -41.15982 | 37055 ft | 453 kts | 13° |
| 2026-04-29 23:31 | -15.57592 | -41.14558 | 37055 ft | 453 kts | 13° |
| 2026-04-29 23:31 | -15.51449 | -41.13136 | 37056 ft | 452 kts | 13° |
| 2026-04-29 23:32 | -15.45307 | -41.11723 | 37054 ft | 452 kts | 13° |
| 2026-04-29 23:32 | -15.39131 | -41.10448 | 37059 ft | 452 kts | 12° |
| 2026-04-29 23:33 | -15.32947 | -41.09227 | 37055 ft | 452 kts | 12° |
| 2026-04-29 23:33 | -15.26758 | -41.07995 | 37058 ft | 453 kts | 12° |
| 2026-04-29 23:34 | -15.20569 | -41.06748 | 37057 ft | 453 kts | 12° |
| 2026-04-29 23:34 | -15.14366 | -41.05497 | 37044 ft | 454 kts | 12° |
| 2026-04-29 23:35 | -15.08203 | -41.04254 | 37047 ft | 454 kts | 12° |
| 2026-04-29 23:35 | -15.01995 | -41.03003 | 37045 ft | 455 kts | 12° |
| 2026-04-29 23:36 | -14.95739 | -41.01742 | 37045 ft | 455 kts | 12° |
| 2026-04-29 23:36 | -14.89565 | -41.00498 | 37044 ft | 455 kts | 12° |
| 2026-04-29 23:37 | -14.83339 | -40.99245 | 37048 ft | 455 kts | 12° |
| 2026-04-29 23:37 | -14.77126 | -40.97995 | 37048 ft | 455 kts | 12° |
| 2026-04-29 23:38 | -14.70891 | -40.96742 | 37035 ft | 456 kts | 12° |
| 2026-04-29 23:38 | -14.64663 | -40.95491 | 37033 ft | 456 kts | 12° |
| 2026-04-29 23:39 | -14.58431 | -40.94239 | 37039 ft | 456 kts | 12° |
| 2026-04-29 23:39 | -14.52242 | -40.92997 | 37036 ft | 455 kts | 12° |
| 2026-04-29 23:40 | -14.46023 | -40.91750 | 37037 ft | 455 kts | 12° |
| 2026-04-29 23:40 | -14.39798 | -40.90502 | 37038 ft | 455 kts | 12° |
| 2026-04-29 23:41 | -14.33581 | -40.89258 | 37040 ft | 455 kts | 12° |
| 2026-04-29 23:41 | -14.27370 | -40.88014 | 37038 ft | 454 kts | 12° |
| 2026-04-29 23:42 | -14.21201 | -40.86780 | 37033 ft | 454 kts | 12° |
| 2026-04-29 23:42 | -14.14994 | -40.85539 | 37041 ft | 454 kts | 12° |
| 2026-04-29 23:43 | -14.08799 | -40.84298 | 37038 ft | 454 kts | 12° |
| 2026-04-29 23:43 | -14.02583 | -40.83057 | 37035 ft | 454 kts | 12° |
| 2026-04-29 23:44 | -13.96384 | -40.81818 | 37037 ft | 454 kts | 12° |
| 2026-04-29 23:44 | -13.90184 | -40.80582 | 37027 ft | 454 kts | 12° |
| 2026-04-29 23:45 | -13.83974 | -40.79344 | 37031 ft | 454 kts | 12° |
| 2026-04-29 23:45 | -13.77793 | -40.78112 | 37025 ft | 454 kts | 12° |
| 2026-04-29 23:46 | -13.71592 | -40.76870 | 37027 ft | 454 kts | 12° |
| 2026-04-29 23:46 | -13.65407 | -40.75526 | 37029 ft | 454 kts | 13° |
| 2026-04-29 23:47 | -13.59222 | -40.74144 | 37029 ft | 455 kts | 13° |
| 2026-04-29 23:47 | -13.53039 | -40.72774 | 37028 ft | 455 kts | 13° |
| 2026-04-29 23:48 | -13.46849 | -40.71412 | 37028 ft | 455 kts | 13° |
| 2026-04-29 23:48 | -13.40652 | -40.70053 | 37027 ft | 455 kts | 13° |
| 2026-04-29 23:49 | -13.34454 | -40.68695 | 37030 ft | 456 kts | 13° |
| 2026-04-29 23:49 | -13.29294 | -40.67562 | 37028 ft | 456 kts | 13° |
| 2026-04-29 23:50 | -13.23080 | -40.66201 | 37027 ft | 457 kts | 13° |
| 2026-04-29 23:51 | -13.13759 | -40.64158 | 37027 ft | 457 kts | 13° |
| 2026-04-29 23:51 | -13.07678 | -40.62828 | 37023 ft | 457 kts | 13° |
| 2026-04-29 23:52 | -13.01456 | -40.61469 | 37018 ft | 457 kts | 13° |
| 2026-04-29 23:52 | -12.95235 | -40.60110 | 37018 ft | 457 kts | 13° |
| 2026-04-29 23:53 | -12.89025 | -40.58754 | 37019 ft | 457 kts | 13° |
| 2026-04-29 23:53 | -12.82798 | -40.57394 | 36995 ft | 457 kts | 13° |
| 2026-04-29 23:54 | -12.76576 | -40.56036 | 36991 ft | 458 kts | 13° |
| 2026-04-29 23:54 | -12.70345 | -40.54678 | 36990 ft | 457 kts | 13° |
| 2026-04-29 23:55 | -12.64118 | -40.53322 | 36993 ft | 457 kts | 13° |
| 2026-04-29 23:55 | -12.57891 | -40.51965 | 36990 ft | 457 kts | 13° |
| 2026-04-29 23:56 | -12.51708 | -40.50619 | 36992 ft | 457 kts | 13° |
| 2026-04-29 23:56 | -12.45485 | -40.49266 | 36989 ft | 457 kts | 13° |
| 2026-04-29 23:57 | -12.39261 | -40.47911 | 36991 ft | 457 kts | 13° |
| 2026-04-29 23:57 | -12.33036 | -40.46557 | 36992 ft | 457 kts | 13° |
| 2026-04-29 23:58 | -12.26806 | -40.45203 | 36991 ft | 458 kts | 13° |
| 2026-04-29 23:58 | -12.20565 | -40.43847 | 36994 ft | 458 kts | 13° |
| 2026-04-29 23:59 | -12.14319 | -40.42491 | 37000 ft | 458 kts | 13° |
| 2026-04-29 23:59 | -12.08080 | -40.41137 | 37000 ft | 458 kts | 13° |
| 2026-04-30 00:00 | -12.01840 | -40.39783 | 37000 ft | 459 kts | 13° |
| 2026-04-30 00:00 | -11.95601 | -40.38433 | 36997 ft | 459 kts | 13° |
| 2026-04-30 00:01 | -11.89347 | -40.37077 | 37000 ft | 459 kts | 13° |
| 2026-04-30 00:01 | -11.83104 | -40.35724 | 36999 ft | 459 kts | 13° |
| 2026-04-30 00:02 | -11.76856 | -40.34372 | 37001 ft | 459 kts | 13° |
| 2026-04-30 00:02 | -11.70645 | -40.33026 | 36992 ft | 459 kts | 13° |
| 2026-04-30 00:03 | -11.64388 | -40.31672 | 36990 ft | 459 kts | 13° |
| 2026-04-30 00:03 | -11.58129 | -40.30319 | 36992 ft | 459 kts | 13° |
| 2026-04-30 00:04 | -11.51873 | -40.28967 | 36994 ft | 460 kts | 13° |
| 2026-04-30 00:04 | -11.45615 | -40.27615 | 36988 ft | 460 kts | 13° |
| 2026-04-30 00:05 | -11.39364 | -40.26266 | 36990 ft | 459 kts | 13° |
| 2026-04-30 00:05 | -11.33115 | -40.24917 | 36990 ft | 458 kts | 13° |
| 2026-04-30 00:06 | -11.26875 | -40.23570 | 36990 ft | 458 kts | 13° |
| 2026-04-30 00:06 | -11.20645 | -40.22224 | 36989 ft | 457 kts | 13° |
| 2026-04-30 00:07 | -11.14424 | -40.20880 | 36993 ft | 457 kts | 13° |
| 2026-04-30 00:07 | -11.08199 | -40.19537 | 36988 ft | 457 kts | 13° |
| 2026-04-30 00:08 | -11.01982 | -40.18197 | 36992 ft | 456 kts | 13° |
| 2026-04-30 00:08 | -10.95764 | -40.16856 | 36992 ft | 457 kts | 13° |
| 2026-04-30 00:09 | -10.89584 | -40.15524 | 36991 ft | 457 kts | 13° |
| 2026-04-30 00:09 | -10.83358 | -40.14183 | 36995 ft | 457 kts | 13° |
| 2026-04-30 00:10 | -10.77128 | -40.12841 | 36990 ft | 458 kts | 13° |
| 2026-04-30 00:10 | -10.70886 | -40.11497 | 36992 ft | 459 kts | 13° |
| 2026-04-30 00:11 | -10.64635 | -40.10151 | 36989 ft | 459 kts | 13° |
| 2026-04-30 00:11 | -10.58380 | -40.08807 | 36985 ft | 460 kts | 13° |
| 2026-04-30 00:12 | -10.52123 | -40.07460 | 36979 ft | 460 kts | 13° |
| 2026-04-30 00:12 | -10.45865 | -40.06113 | 36982 ft | 459 kts | 13° |
| 2026-04-30 00:13 | -10.39646 | -40.04778 | 36981 ft | 459 kts | 13° |
| 2026-04-30 00:13 | -10.33398 | -40.03442 | 36982 ft | 459 kts | 13° |
| 2026-04-30 00:14 | -10.27145 | -40.02104 | 36977 ft | 458 kts | 13° |
| 2026-04-30 00:14 | -10.20890 | -40.00767 | 36983 ft | 458 kts | 13° |
| 2026-04-30 00:15 | -10.14694 | -39.99444 | 36985 ft | 457 kts | 12° |
| 2026-04-30 00:15 | -10.08468 | -39.98114 | 36993 ft | 456 kts | 12° |
| 2026-04-30 00:16 | -10.02256 | -39.96788 | 36998 ft | 456 kts | 12° |
| 2026-04-30 00:16 | -9.96047 | -39.95461 | 37001 ft | 455 kts | 12° |
| 2026-04-30 00:17 | -9.89852 | -39.94139 | 37000 ft | 455 kts | 12° |
| 2026-04-30 00:17 | -9.83659 | -39.92819 | 37001 ft | 455 kts | 12° |
| 2026-04-30 00:18 | -9.77453 | -39.91497 | 37002 ft | 455 kts | 12° |
| 2026-04-30 00:18 | -9.71255 | -39.90175 | 36997 ft | 455 kts | 12° |
| 2026-04-30 00:19 | -9.65048 | -39.88852 | 37001 ft | 456 kts | 12° |
| 2026-04-30 00:19 | -9.58838 | -39.87529 | 37000 ft | 456 kts | 12° |
| 2026-04-30 00:20 | -9.52635 | -39.86208 | 37000 ft | 456 kts | 12° |
| 2026-04-30 00:20 | -9.46424 | -39.84885 | 37000 ft | 456 kts | 12° |
| 2026-04-30 00:21 | -9.40255 | -39.83572 | 37001 ft | 456 kts | 12° |
| 2026-04-30 00:21 | -9.34032 | -39.82250 | 37001 ft | 456 kts | 12° |
| 2026-04-30 00:22 | -9.27815 | -39.80928 | 36999 ft | 457 kts | 12° |
| 2026-04-30 00:22 | -9.21600 | -39.79607 | 37001 ft | 457 kts | 12° |
| 2026-04-30 00:23 | -9.15380 | -39.78286 | 37001 ft | 457 kts | 12° |
| 2026-04-30 00:23 | -9.09151 | -39.76962 | 37001 ft | 457 kts | 12° |
| 2026-04-30 00:24 | -9.02876 | -39.75910 | 37003 ft | 457 kts | 7° |
| 2026-04-30 00:24 | -8.96588 | -39.75172 | 37000 ft | 457 kts | 7° |
| 2026-04-30 00:25 | -8.90277 | -39.74423 | 37001 ft | 457 kts | 7° |
| 2026-04-30 00:25 | -8.83962 | -39.73634 | 37003 ft | 457 kts | 7° |
| 2026-04-30 00:26 | -8.77662 | -39.72833 | 36996 ft | 456 kts | 8° |
| 2026-04-30 00:26 | -8.71359 | -39.72033 | 36998 ft | 456 kts | 8° |
| 2026-04-30 00:27 | -8.65065 | -39.71237 | 37001 ft | 455 kts | 8° |
| 2026-04-30 00:27 | -8.58770 | -39.70439 | 37000 ft | 455 kts | 8° |
| 2026-04-30 00:28 | -8.52483 | -39.69642 | 37000 ft | 455 kts | 7° |
| 2026-04-30 00:28 | -8.46204 | -39.68846 | 36997 ft | 455 kts | 8° |
| 2026-04-30 00:29 | -8.39907 | -39.68048 | 37002 ft | 455 kts | 8° |
| 2026-04-30 00:29 | -8.33659 | -39.67257 | 36999 ft | 455 kts | 7° |
| 2026-04-30 00:30 | -8.27366 | -39.66460 | 37001 ft | 455 kts | 8° |
| 2026-04-30 00:30 | -8.21072 | -39.65662 | 36999 ft | 456 kts | 8° |
| 2026-04-30 00:31 | -8.14778 | -39.64865 | 37002 ft | 456 kts | 8° |
| 2026-04-30 00:31 | -8.08481 | -39.64070 | 36998 ft | 456 kts | 7° |
| 2026-04-30 00:32 | -8.02181 | -39.63273 | 37001 ft | 457 kts | 8° |
| 2026-04-30 00:32 | -7.95870 | -39.62475 | 37003 ft | 457 kts | 7° |
| 2026-04-30 00:33 | -7.89557 | -39.61677 | 36993 ft | 457 kts | 7° |
| 2026-04-30 00:33 | -7.83245 | -39.60879 | 36991 ft | 457 kts | 7° |
| 2026-04-30 00:34 | -7.77988 | -39.60215 | 36991 ft | 457 kts | 7° |
| 2026-04-30 00:34 | -7.70642 | -39.59287 | 36990 ft | 457 kts | 8° |
| 2026-04-30 00:35 | -7.65401 | -39.58625 | 36988 ft | 457 kts | 8° |
| 2026-04-30 00:35 | -7.59096 | -39.57830 | 36992 ft | 456 kts | 8° |
| 2026-04-30 00:36 | -7.52781 | -39.57033 | 36990 ft | 456 kts | 7° |
| 2026-04-30 00:36 | -7.46479 | -39.56238 | 36990 ft | 456 kts | 7° |
| 2026-04-30 00:37 | -7.40190 | -39.55444 | 36991 ft | 455 kts | 7° |
| 2026-04-30 00:37 | -7.33937 | -39.54656 | 36991 ft | 455 kts | 7° |
| 2026-04-30 00:38 | -7.27616 | -39.53859 | 36988 ft | 454 kts | 8° |
| 2026-04-30 00:38 | -7.21387 | -39.53074 | 36991 ft | 454 kts | 7° |
| 2026-04-30 00:39 | -7.15120 | -39.52285 | 36992 ft | 454 kts | 7° |
| 2026-04-30 00:39 | -7.08853 | -39.51496 | 36990 ft | 454 kts | 7° |
| 2026-04-30 00:40 | -7.02583 | -39.50706 | 36993 ft | 454 kts | 7° |
| 2026-04-30 00:40 | -6.96316 | -39.49917 | 36992 ft | 454 kts | 8° |
| 2026-04-30 00:41 | -6.90045 | -39.49127 | 36992 ft | 454 kts | 8° |
| 2026-04-30 00:41 | -6.83804 | -39.48122 | 36991 ft | 454 kts | 11° |
| 2026-04-30 00:42 | -6.77589 | -39.46973 | 36993 ft | 454 kts | 11° |
| 2026-04-30 00:42 | -6.71367 | -39.45837 | 36990 ft | 454 kts | 11° |
| 2026-04-30 00:43 | -6.65138 | -39.44730 | 36990 ft | 455 kts | 11° |
| 2026-04-30 00:43 | -6.58907 | -39.43635 | 36982 ft | 455 kts | 11° |
| 2026-04-30 00:44 | -6.52663 | -39.42538 | 36981 ft | 455 kts | 11° |
| 2026-04-30 00:44 | -6.46461 | -39.41448 | 36983 ft | 455 kts | 10° |
| 2026-04-30 00:45 | -6.40225 | -39.40353 | 36981 ft | 455 kts | 10° |
| 2026-04-30 00:45 | -6.33990 | -39.39258 | 36977 ft | 454 kts | 10° |
| 2026-04-30 00:46 | -6.27755 | -39.38163 | 36975 ft | 455 kts | 10° |
| 2026-04-30 00:46 | -6.21516 | -39.37068 | 36971 ft | 454 kts | 10° |
| 2026-04-30 00:47 | -6.15291 | -39.35974 | 36965 ft | 454 kts | 10° |
| 2026-04-30 00:47 | -6.09068 | -39.34882 | 36962 ft | 454 kts | 10° |
| 2026-04-30 00:48 | -6.02842 | -39.33790 | 36789 ft | 456 kts | 10° |
| 2026-04-30 00:48 | -5.99720 | -39.33242 | 36441 ft | 454 kts | 10° |
| 2026-04-30 00:48 | -5.96621 | -39.32698 | 36043 ft | 449 kts | 11° |
| 2026-04-30 00:48 | -5.93559 | -39.32162 | 35643 ft | 445 kts | 11° |
| 2026-04-30 00:49 | -5.90517 | -39.31630 | 35227 ft | 442 kts | 11° |
| 2026-04-30 00:49 | -5.87496 | -39.31100 | 34816 ft | 439 kts | 11° |
| 2026-04-30 00:49 | -5.84492 | -39.30574 | 34413 ft | 436 kts | 11° |
| 2026-04-30 00:49 | -5.81544 | -39.30057 | 34010 ft | 434 kts | 11° |
| 2026-04-30 00:50 | -5.78571 | -39.29536 | 33600 ft | 431 kts | 11° |
| 2026-04-30 00:50 | -5.75624 | -39.29019 | 33193 ft | 429 kts | 11° |
| 2026-04-30 00:50 | -5.72688 | -39.28504 | 32789 ft | 426 kts | 11° |
| 2026-04-30 00:50 | -5.69775 | -39.27994 | 32391 ft | 424 kts | 11° |
| 2026-04-30 00:51 | -5.66876 | -39.27486 | 31993 ft | 422 kts | 11° |
| 2026-04-30 00:51 | -5.63993 | -39.26981 | 31593 ft | 419 kts | 11° |
| 2026-04-30 00:51 | -5.61125 | -39.26479 | 31197 ft | 417 kts | 12° |
| 2026-04-30 00:51 | -5.58276 | -39.25981 | 30811 ft | 415 kts | 11° |
| 2026-04-30 00:52 | -5.55436 | -39.25484 | 30421 ft | 413 kts | 12° |
| 2026-04-30 00:52 | -5.52620 | -39.24991 | 30041 ft | 410 kts | 12° |
| 2026-04-30 00:52 | -5.49811 | -39.24499 | 29648 ft | 408 kts | 12° |
| 2026-04-30 00:52 | -5.47027 | -39.24011 | 29263 ft | 405 kts | 12° |
| 2026-04-30 00:53 | -5.44260 | -39.23527 | 28870 ft | 402 kts | 12° |
| 2026-04-30 00:53 | -5.41513 | -39.23047 | 28477 ft | 399 kts | 13° |
| 2026-04-30 00:53 | -5.38785 | -39.22569 | 28087 ft | 397 kts | 13° |
| 2026-04-30 00:53 | -5.36069 | -39.22094 | 27694 ft | 394 kts | 13° |
| 2026-04-30 00:54 | -5.33374 | -39.21623 | 27303 ft | 392 kts | 13° |
| 2026-04-30 00:54 | -5.30697 | -39.21155 | 26913 ft | 389 kts | 13° |
| 2026-04-30 00:54 | -5.28043 | -39.20691 | 26532 ft | 386 kts | 14° |
| 2026-04-30 00:54 | -5.25405 | -39.20228 | 26146 ft | 383 kts | 14° |
| 2026-04-30 00:55 | -5.22815 | -39.19775 | 25770 ft | 381 kts | 14° |
| 2026-04-30 00:55 | -5.20217 | -39.19321 | 25389 ft | 378 kts | 14° |
| 2026-04-30 00:55 | -5.15069 | -39.18422 | 24626 ft | 372 kts | 15° |
| 2026-04-30 00:56 | -5.12522 | -39.17977 | 24248 ft | 370 kts | 15° |
| 2026-04-30 00:56 | -5.09994 | -39.17535 | 23871 ft | 367 kts | 15° |
| 2026-04-30 00:56 | -5.07488 | -39.17096 | 23505 ft | 364 kts | 15° |
| 2026-04-30 00:56 | -5.04999 | -39.16660 | 23136 ft | 361 kts | 15° |
| 2026-04-30 00:57 | -5.02530 | -39.16229 | 22772 ft | 359 kts | 15° |
| 2026-04-30 00:57 | -5.00083 | -39.15801 | 22414 ft | 356 kts | 15° |
| 2026-04-30 00:57 | -4.97649 | -39.15376 | 22053 ft | 353 kts | 15° |
| 2026-04-30 00:57 | -4.95271 | -39.14960 | 21703 ft | 350 kts | 14° |
| 2026-04-30 00:58 | -4.92875 | -39.14542 | 21351 ft | 348 kts | 14° |
| 2026-04-30 00:58 | -4.90499 | -39.14126 | 20994 ft | 346 kts | 14° |
| 2026-04-30 00:58 | -4.88135 | -39.13713 | 20650 ft | 344 kts | 14° |
| 2026-04-30 00:58 | -4.85781 | -39.13301 | 20307 ft | 342 kts | 14° |
| 2026-04-30 00:59 | -4.83443 | -39.12893 | 19945 ft | 340 kts | 14° |
| 2026-04-30 00:59 | -4.81121 | -39.12487 | 19604 ft | 337 kts | 14° |
| 2026-04-30 00:59 | -4.78816 | -39.12085 | 19265 ft | 335 kts | 14° |
| 2026-04-30 00:59 | -4.76529 | -39.11685 | 18919 ft | 333 kts | 14° |
| 2026-04-30 01:00 | -4.74254 | -39.11287 | 18574 ft | 330 kts | 14° |
| 2026-04-30 01:00 | -4.71995 | -39.10893 | 18241 ft | 328 kts | 14° |
| 2026-04-30 01:00 | -4.69759 | -39.10502 | 17907 ft | 325 kts | 13° |
| 2026-04-30 01:00 | -4.67535 | -39.10114 | 17574 ft | 323 kts | 13° |
| 2026-04-30 01:01 | -4.65329 | -39.09728 | 17236 ft | 321 kts | 13° |
| 2026-04-30 01:01 | -4.63131 | -39.09344 | 16913 ft | 319 kts | 13° |
| 2026-04-30 01:01 | -4.60950 | -39.08964 | 16582 ft | 317 kts | 13° |
| 2026-04-30 01:01 | -4.58779 | -39.08584 | 16253 ft | 315 kts | 13° |
| 2026-04-30 01:02 | -4.56629 | -39.08209 | 15928 ft | 313 kts | 13° |
| 2026-04-30 01:02 | -4.54486 | -39.07834 | 15603 ft | 311 kts | 13° |
| 2026-04-30 01:02 | -4.52356 | -39.07462 | 15278 ft | 310 kts | 13° |
| 2026-04-30 01:02 | -4.50266 | -39.07096 | 14961 ft | 308 kts | 13° |
| 2026-04-30 01:03 | -4.48162 | -39.06730 | 14647 ft | 306 kts | 13° |
| 2026-04-30 01:03 | -4.46069 | -39.06364 | 14325 ft | 304 kts | 13° |
| 2026-04-30 01:03 | -4.43993 | -39.06002 | 14016 ft | 302 kts | 13° |
| 2026-04-30 01:03 | -4.41930 | -39.05642 | 13692 ft | 300 kts | 13° |
| 2026-04-30 01:04 | -4.39894 | -39.05240 | 13391 ft | 296 kts | 21° |
| 2026-04-30 01:04 | -4.38071 | -39.04359 | 13197 ft | 287 kts | 32° |
| 2026-04-30 01:04 | -4.36337 | -39.03359 | 12875 ft | 286 kts | 32° |
| 2026-04-30 01:04 | -4.34617 | -39.02363 | 12583 ft | 285 kts | 32° |
| 2026-04-30 01:05 | -4.32896 | -39.01380 | 12273 ft | 285 kts | 32° |
| 2026-04-30 01:05 | -4.31172 | -39.00406 | 11966 ft | 284 kts | 32° |
| 2026-04-30 01:05 | -4.29453 | -38.99441 | 11658 ft | 283 kts | 32° |
| 2026-04-30 01:05 | -4.27739 | -38.98480 | 11346 ft | 282 kts | 32° |
| 2026-04-30 01:06 | -4.26028 | -38.97527 | 11036 ft | 281 kts | 32° |
| 2026-04-30 01:06 | -4.24341 | -38.96587 | 10809 ft | 280 kts | 32° |
| 2026-04-30 01:06 | -4.22648 | -38.95637 | 10642 ft | 280 kts | 32° |
| 2026-04-30 01:06 | -4.20928 | -38.94671 | 10408 ft | 291 kts | 32° |
| 2026-04-30 01:07 | -4.19146 | -38.93657 | 10124 ft | 297 kts | 32° |
| 2026-04-30 01:07 | -4.17331 | -38.92654 | 9989 ft | 295 kts | 32° |
| 2026-04-30 01:07 | -4.15566 | -38.91666 | 9763 ft | 289 kts | 32° |
| 2026-04-30 01:07 | -4.13809 | -38.90689 | 9446 ft | 289 kts | 33° |
| 2026-04-30 01:08 | -4.12073 | -38.89691 | 9157 ft | 287 kts | 33° |
| 2026-04-30 01:08 | -4.10343 | -38.88713 | 8816 ft | 283 kts | 32° |
| 2026-04-30 01:08 | -4.08637 | -38.87763 | 8588 ft | 279 kts | 33° |
| 2026-04-30 01:08 | -4.06941 | -38.86813 | 8289 ft | 278 kts | 33° |
| 2026-04-30 01:09 | -4.05254 | -38.85870 | 8009 ft | 278 kts | 33° |
| 2026-04-30 01:09 | -4.03570 | -38.84927 | 7714 ft | 277 kts | 33° |
| 2026-04-30 01:09 | -4.01892 | -38.83986 | 7436 ft | 275 kts | 33° |
| 2026-04-30 01:09 | -4.00227 | -38.83056 | 7134 ft | 273 kts | 33° |
| 2026-04-30 01:10 | -3.98567 | -38.82129 | 6807 ft | 273 kts | 34° |
| 2026-04-30 01:10 | -3.96904 | -38.81196 | 6510 ft | 274 kts | 33° |
| 2026-04-30 01:10 | -3.95259 | -38.80271 | 6207 ft | 268 kts | 34° |
| 2026-04-30 01:10 | -3.93653 | -38.79369 | 5917 ft | 262 kts | 34° |
| 2026-04-30 01:11 | -3.92092 | -38.78495 | 5645 ft | 252 kts | 33° |
| 2026-04-30 01:11 | -3.90583 | -38.77644 | 5388 ft | 246 kts | 34° |
| 2026-04-30 01:11 | -3.89108 | -38.76814 | 5169 ft | 237 kts | 34° |
| 2026-04-30 01:11 | -3.87689 | -38.76018 | 4978 ft | 231 kts | 34° |
| 2026-04-30 01:12 | -3.86285 | -38.75230 | 4749 ft | 230 kts | 34° |
| 2026-04-30 01:12 | -3.84890 | -38.74448 | 4516 ft | 230 kts | 34° |
| 2026-04-30 01:12 | -3.83482 | -38.73658 | 4300 ft | 234 kts | 33° |
| 2026-04-30 01:12 | -3.82046 | -38.72903 | 4138 ft | 236 kts | 25° |
| 2026-04-30 01:13 | -3.80474 | -38.72429 | 3948 ft | 233 kts | 19° |
| 2026-04-30 01:13 | -3.78926 | -38.72039 | 3723 ft | 226 kts | 19° |
| 2026-04-30 01:13 | -3.77430 | -38.71653 | 3504 ft | 218 kts | 19° |
| 2026-04-30 01:13 | -3.75990 | -38.71271 | 3295 ft | 211 kts | 20° |
| 2026-04-30 01:14 | -3.74631 | -38.70817 | 3086 ft | 200 kts | 38° |
| 2026-04-30 01:14 | -3.73797 | -38.69819 | 2955 ft | 180 kts | 72° |
| 2026-04-30 01:14 | -3.73547 | -38.68637 | 2755 ft | 169 kts | 95° |
| 2026-04-30 01:14 | -3.73849 | -38.67575 | 2702 ft | 156 kts | 107° |
| 2026-04-30 01:15 | -3.74113 | -38.66543 | 2523 ft | 149 kts | 105° |
| 2026-04-30 01:15 | -3.74364 | -38.65553 | 2319 ft | 148 kts | 107° |
| 2026-04-30 01:15 | -3.74633 | -38.64529 | 2122 ft | 152 kts | 107° |
| 2026-04-30 01:15 | -3.74906 | -38.63502 | 1926 ft | 153 kts | 107° |
| 2026-04-30 01:16 | -3.75174 | -38.62491 | 1715 ft | 154 kts | 107° |
| 2026-04-30 01:16 | -3.75449 | -38.61459 | 1521 ft | 155 kts | 107° |
| 2026-04-30 01:16 | -3.75728 | -38.60408 | 1308 ft | 156 kts | 106° |
| 2026-04-30 01:16 | -3.76008 | -38.59359 | 1104 ft | 157 kts | 106° |
| 2026-04-30 01:17 | -3.76287 | -38.58311 | 912 ft | 153 kts | 107° |
| 2026-04-30 01:17 | -3.76566 | -38.57281 | 713 ft | 152 kts | 107° |
| 2026-04-30 01:17 | -3.76832 | -38.56260 | 562 ft | 152 kts | 106° |
| 2026-04-30 01:17 | -3.77109 | -38.55242 | 332 ft | 150 kts | 107° |
| 2026-04-30 01:18 | -3.77354 | -38.54310 | 120 ft | 143 kts | 105° |
| 2026-04-30 01:18 | -3.77590 | -38.53431 | 89 ft | 111 kts | 105° |
| 2026-04-30 01:18 | -3.77733 | -38.52882 | 91 ft | 61 kts | 105° |
| 2026-04-30 01:18 | -3.77802 | -38.52632 | 90 ft | 16 kts | 120° |
| 2026-04-30 01:19 | -3.77856 | -38.52630 | 90 ft | 6 kts | 239° |
| 2026-04-30 01:19 | -3.77874 | -38.52664 | 90 ft | 6 kts | 243° |
| 2026-04-30 01:19 | -3.77892 | -38.52698 | 90 ft | 5 kts | 242° |
| 2026-04-30 01:19 | -3.77897 | -38.52708 | 90 ft | 0 kts | 242° |
| 2026-04-30 01:20 | -3.77908 | -38.52729 | 90 ft | 6 kts | 245° |
| 2026-04-30 01:20 | -3.77915 | -38.52760 | 90 ft | 7 kts | 273° |
| 2026-04-30 01:20 | -3.77904 | -38.52807 | 90 ft | 7 kts | 287° |
| 2026-04-30 01:21 | -3.77893 | -38.52854 | 90 ft | 7 kts | 283° |
| 2026-04-30 01:21 | -3.77879 | -38.52905 | 90 ft | 8 kts | 285° |
| 2026-04-30 01:21 | -3.77864 | -38.52962 | 90 ft | 8 kts | 285° |
| 2026-04-30 01:21 | -3.77848 | -38.53016 | 90 ft | 8 kts | 287° |
| 2026-04-30 01:22 | -3.77835 | -38.53068 | 90 ft | 8 kts | 283° |
| 2026-04-30 01:22 | -3.77823 | -38.53119 | 90 ft | 7 kts | 287° |
| 2026-04-30 01:22 | -3.77809 | -38.53167 | 90 ft | 7 kts | 285° |
| 2026-04-30 01:22 | -3.77797 | -38.53214 | 90 ft | 7 kts | 285° |
| 2026-04-30 01:23 | -3.77784 | -38.53261 | 90 ft | 7 kts | 285° |
| 2026-04-30 01:23 | -3.77771 | -38.53311 | 90 ft | 8 kts | 285° |
| 2026-04-30 01:23 | -3.77757 | -38.53361 | 90 ft | 7 kts | 285° |
| 2026-04-30 01:23 | -3.77745 | -38.53408 | 90 ft | 7 kts | 284° |
| 2026-04-30 01:24 | -3.77732 | -38.53455 | 90 ft | 7 kts | 285° |
| 2026-04-30 01:24 | -3.77720 | -38.53500 | 90 ft | 7 kts | 285° |
| 2026-04-30 01:24 | -3.77709 | -38.53544 | 90 ft | 7 kts | 283° |
| 2026-04-30 01:24 | -3.77698 | -38.53588 | 90 ft | 6 kts | 286° |
| 2026-04-30 01:25 | -3.77686 | -38.53630 | 90 ft | 6 kts | 285° |
| 2026-04-30 01:25 | -3.77675 | -38.53671 | 90 ft | 6 kts | 285° |
| 2026-04-30 01:25 | -3.77665 | -38.53711 | 90 ft | 6 kts | 283° |
| 2026-04-30 01:25 | -3.77664 | -38.53751 | 90 ft | 6 kts | 252° |
| 2026-04-30 01:26 | -3.77691 | -38.53804 | 90 ft | 10 kts | 239° |
| 2026-04-30 01:26 | -3.77724 | -38.53861 | 90 ft | 9 kts | 243° |
| 2026-04-30 01:26 | -3.77724 | -38.53922 | 90 ft | 9 kts | 283° |
| 2026-04-30 01:26 | -3.77709 | -38.53981 | 94 ft | 9 kts | 285° |
| 2026-04-30 01:27 | -3.77694 | -38.54039 | 91 ft | 8 kts | 284° |
| 2026-04-30 01:27 | -3.77688 | -38.54094 | 91 ft | 8 kts | 270° |
| 2026-04-30 01:27 | -3.77698 | -38.54143 | 93 ft | 6 kts | 232° |
| 2026-04-30 01:27 | -3.77718 | -38.54152 | 90 ft | 1 kts | 198° |
| 2026-04-30 01:28 | -3.77731 | -38.54155 | 90 ft | 3 kts | 191° |
| 2026-04-30 01:28 | -3.77750 | -38.54159 | 90 ft | 2 kts | 194° |
| 2026-04-30 01:28 | -3.77753 | -38.54160 | 90 ft | 0 kts | 194° |